sensor_id;sensor_type;location;lat;lon;timestamp;temperature;humidity
28677;DHT22;15858;48.338;11.078;2023-03-12T00:01:16;-0.10;99.90
28677;DHT22;15858;48.338;11.078;2023-03-12T00:03:44;-0.10;99.90
28677;DHT22;15858;48.338;11.078;2023-03-12T00:06:11;-0.10;99.90
28677;DHT22;15858;48.338;11.078;2023-03-12T00:08:38;-0.20;99.90
28677;DHT22;15858;48.338;11.078;2023-03-12T00:11:07;-0.20;99.90
28677;DHT22;15858;48.338;11.078;2023-03-12T00:13:34;-0.30;99.90
28677;DHT22;15858;48.338;11.078;2023-03-12T00:16:09;-0.30;99.90
28677;DHT22;15858;48.338;11.078;2023-03-12T00:18:36;-0.30;99.90
28677;DHT22;15858;48.338;11.078;2023-03-12T00:21:03;-0.30;99.90
28677;DHT22;15858;48.338;11.078;2023-03-12T00:23:31;-0.30;99.90
28677;DHT22;15858;48.338;11.078;2023-03-12T00:26:09;-0.40;99.90
28677;DHT22;15858;48.338;11.078;2023-03-12T00:28:37;-0.40;99.90
28677;DHT22;15858;48.338;11.078;2023-03-12T00:31:16;-0.40;99.90
28677;DHT22;15858;48.338;11.078;2023-03-12T00:33:43;-0.40;99.90
28677;DHT22;15858;48.338;11.078;2023-03-12T00:36:10;-0.50;99.90
28677;DHT22;15858;48.338;11.078;2023-03-12T00:38:43;-0.50;99.90
28677;DHT22;15858;48.338;11.078;2023-03-12T00:41:10;-0.50;99.90
28677;DHT22;15858;48.338;11.078;2023-03-12T00:43:36;-0.50;99.90
28677;DHT22;15858;48.338;11.078;2023-03-12T00:46:03;-0.50;99.90
28677;DHT22;15858;48.338;11.078;2023-03-12T00:48:30;-0.50;99.90
28677;DHT22;15858;48.338;11.078;2023-03-12T00:50:57;-0.50;99.90
28677;DHT22;15858;48.338;11.078;2023-03-12T00:53:23;-0.60;99.90
28677;DHT22;15858;48.338;11.078;2023-03-12T00:55:50;-0.60;99.90
28677;DHT22;15858;48.338;11.078;2023-03-12T00:58:17;-0.60;99.90
28677;DHT22;15858;48.338;11.078;2023-03-12T01:00:43;-0.70;99.90
28677;DHT22;15858;48.338;11.078;2023-03-12T01:03:10;-0.70;99.90
28677;DHT22;15858;48.338;11.078;2023-03-12T01:05:37;-0.70;99.90
28677;DHT22;15858;48.338;11.078;2023-03-12T01:08:04;-0.70;99.90
28677;DHT22;15858;48.338;11.078;2023-03-12T01:10:30;-0.70;99.90
28677;DHT22;15858;48.338;11.078;2023-03-12T01:12:57;-0.80;99.90
28677;DHT22;15858;48.338;11.078;2023-03-12T01:15:24;-0.80;99.90
28677;DHT22;15858;48.338;11.078;2023-03-12T01:17:50;-0.70;99.90
28677;DHT22;15858;48.338;11.078;2023-03-12T01:20:18;-0.70;99.90
28677;DHT22;15858;48.338;11.078;2023-03-12T01:22:44;-0.70;99.90
28677;DHT22;15858;48.338;11.078;2023-03-12T01:25:11;-0.70;99.90
28677;DHT22;15858;48.338;11.078;2023-03-12T01:27:38;-0.70;99.90
28677;DHT22;15858;48.338;11.078;2023-03-12T01:30:05;-0.70;99.90
28677;DHT22;15858;48.338;11.078;2023-03-12T01:32:32;-0.80;99.90
28677;DHT22;15858;48.338;11.078;2023-03-12T01:34:59;-0.70;99.90
28677;DHT22;15858;48.338;11.078;2023-03-12T01:37:26;-0.80;99.90
28677;DHT22;15858;48.338;11.078;2023-03-12T01:39:53;-0.80;99.90
28677;DHT22;15858;48.338;11.078;2023-03-12T01:42:20;-0.90;99.90
28677;DHT22;15858;48.338;11.078;2023-03-12T01:47:19;-1.00;99.90
28677;DHT22;15858;48.338;11.078;2023-03-12T01:49:47;-0.90;99.90
28677;DHT22;15858;48.338;11.078;2023-03-12T01:52:41;-1.00;99.90
28677;DHT22;15858;48.338;11.078;2023-03-12T01:55:12;-0.90;99.90
28677;DHT22;15858;48.338;11.078;2023-03-12T01:57:44;-1.00;99.90
28677;DHT22;15858;48.338;11.078;2023-03-12T02:00:17;-0.90;99.90
28677;DHT22;15858;48.338;11.078;2023-03-12T02:02:44;-1.10;99.90
28677;DHT22;15858;48.338;11.078;2023-03-12T02:07:47;-1.00;99.90
28677;DHT22;15858;48.338;11.078;2023-03-12T02:10:14;-1.10;99.90
28677;DHT22;15858;48.338;11.078;2023-03-12T02:12:41;-1.10;99.90
28677;DHT22;15858;48.338;11.078;2023-03-12T02:15:08;-1.10;99.90
28677;DHT22;15858;48.338;11.078;2023-03-12T02:17:36;-1.20;99.90
28677;DHT22;15858;48.338;11.078;2023-03-12T02:20:13;-1.10;99.90
28677;DHT22;15858;48.338;11.078;2023-03-12T02:22:45;-1.10;99.90
28677;DHT22;15858;48.338;11.078;2023-03-12T02:25:40;-1.10;99.90
28677;DHT22;15858;48.338;11.078;2023-03-12T02:28:12;-1.10;99.90
28677;DHT22;15858;48.338;11.078;2023-03-12T02:30:41;-1.20;99.90
28677;DHT22;15858;48.338;11.078;2023-03-12T02:33:10;-1.20;99.90
28677;DHT22;15858;48.338;11.078;2023-03-12T02:35:37;-1.20;99.90
28677;DHT22;15858;48.338;11.078;2023-03-12T02:38:34;-1.20;99.90
28677;DHT22;15858;48.338;11.078;2023-03-12T02:41:47;-1.20;99.90
28677;DHT22;15858;48.338;11.078;2023-03-12T02:43:59;-1.20;99.90
28677;DHT22;15858;48.338;11.078;2023-03-12T02:46:31;-1.20;99.90
28677;DHT22;15858;48.338;11.078;2023-03-12T02:49:00;-1.20;99.90
28677;DHT22;15858;48.338;11.078;2023-03-12T02:51:27;-1.10;99.90
28677;DHT22;15858;48.338;11.078;2023-03-12T02:53:53;-1.10;99.90
28677;DHT22;15858;48.338;11.078;2023-03-12T02:56:26;-1.20;99.90
28677;DHT22;15858;48.338;11.078;2023-03-12T02:58:53;-1.10;99.90
28677;DHT22;15858;48.338;11.078;2023-03-12T03:01:20;-1.10;99.90
28677;DHT22;15858;48.338;11.078;2023-03-12T03:03:47;-1.00;99.90
28677;DHT22;15858;48.338;11.078;2023-03-12T03:06:14;-1.00;99.90
28677;DHT22;15858;48.338;11.078;2023-03-12T03:08:41;-1.00;99.90
28677;DHT22;15858;48.338;11.078;2023-03-12T03:11:08;-0.90;99.90
28677;DHT22;15858;48.338;11.078;2023-03-12T03:13:34;-0.90;99.90
28677;DHT22;15858;48.338;11.078;2023-03-12T03:16:01;-0.80;99.90
28677;DHT22;15858;48.338;11.078;2023-03-12T03:18:29;-0.90;99.90
28677;DHT22;15858;48.338;11.078;2023-03-12T03:20:57;-0.80;99.90
28677;DHT22;15858;48.338;11.078;2023-03-12T03:23:24;-0.80;99.90
28677;DHT22;15858;48.338;11.078;2023-03-12T03:25:51;-0.80;99.90
28677;DHT22;15858;48.338;11.078;2023-03-12T03:28:19;-0.80;99.90
28677;DHT22;15858;48.338;11.078;2023-03-12T03:30:46;-0.80;99.90
28677;DHT22;15858;48.338;11.078;2023-03-12T03:33:12;-0.80;99.90
28677;DHT22;15858;48.338;11.078;2023-03-12T03:35:39;-0.80;99.90
28677;DHT22;15858;48.338;11.078;2023-03-12T03:38:06;-0.80;99.90
28677;DHT22;15858;48.338;11.078;2023-03-12T03:40:33;-0.90;99.90
28677;DHT22;15858;48.338;11.078;2023-03-12T03:42:59;-0.90;99.90
28677;DHT22;15858;48.338;11.078;2023-03-12T03:45:26;-1.00;99.90
28677;DHT22;15858;48.338;11.078;2023-03-12T03:47:52;-1.00;99.90
28677;DHT22;15858;48.338;11.078;2023-03-12T03:50:19;-0.90;99.90
28677;DHT22;15858;48.338;11.078;2023-03-12T03:52:46;-0.90;99.90
28677;DHT22;15858;48.338;11.078;2023-03-12T03:55:12;-0.80;99.90
28677;DHT22;15858;48.338;11.078;2023-03-12T03:57:39;-0.70;99.90
28677;DHT22;15858;48.338;11.078;2023-03-12T04:00:06;-0.60;99.90
28677;DHT22;15858;48.338;11.078;2023-03-12T04:02:33;-0.50;99.90
28677;DHT22;15858;48.338;11.078;2023-03-12T04:04:59;-0.50;99.90
28677;DHT22;15858;48.338;11.078;2023-03-12T04:07:27;-0.50;99.90
28677;DHT22;15858;48.338;11.078;2023-03-12T04:09:54;-0.40;99.90
28677;DHT22;15858;48.338;11.078;2023-03-12T04:12:20;-0.40;99.90
28677;DHT22;15858;48.338;11.078;2023-03-12T04:14:47;-0.40;99.90
28677;DHT22;15858;48.338;11.078;2023-03-12T04:17:14;-0.40;99.90
28677;DHT22;15858;48.338;11.078;2023-03-12T04:19:40;-0.40;99.90
28677;DHT22;15858;48.338;11.078;2023-03-12T04:22:07;-0.40;99.90
28677;DHT22;15858;48.338;11.078;2023-03-12T04:24:33;-0.30;99.90
28677;DHT22;15858;48.338;11.078;2023-03-12T04:27:00;-0.30;99.90
28677;DHT22;15858;48.338;11.078;2023-03-12T04:29:27;-0.30;99.90
28677;DHT22;15858;48.338;11.078;2023-03-12T04:31:53;-0.30;99.90
28677;DHT22;15858;48.338;11.078;2023-03-12T04:34:20;-0.20;99.90
28677;DHT22;15858;48.338;11.078;2023-03-12T04:36:46;-0.20;99.90
28677;DHT22;15858;48.338;11.078;2023-03-12T04:39:16;-0.10;99.90
28677;DHT22;15858;48.338;11.078;2023-03-12T04:41:44;-0.10;99.90
28677;DHT22;15858;48.338;11.078;2023-03-12T04:44:11;-0.10;99.90
28677;DHT22;15858;48.338;11.078;2023-03-12T04:46:38;0.00;99.90
28677;DHT22;15858;48.338;11.078;2023-03-12T04:49:05;0.00;99.90
28677;DHT22;15858;48.338;11.078;2023-03-12T04:51:32;0.00;99.90
28677;DHT22;15858;48.338;11.078;2023-03-12T04:53:58;0.10;99.90
28677;DHT22;15858;48.338;11.078;2023-03-12T04:56:25;0.10;99.90
28677;DHT22;15858;48.338;11.078;2023-03-12T04:58:51;0.10;99.90
28677;DHT22;15858;48.338;11.078;2023-03-12T05:01:30;0.10;99.90
28677;DHT22;15858;48.338;11.078;2023-03-12T05:03:57;0.20;99.90
28677;DHT22;15858;48.338;11.078;2023-03-12T05:06:24;0.20;99.90
28677;DHT22;15858;48.338;11.078;2023-03-12T05:08:51;0.20;99.90
28677;DHT22;15858;48.338;11.078;2023-03-12T05:11:18;0.20;99.90
28677;DHT22;15858;48.338;11.078;2023-03-12T05:13:45;0.20;99.90
28677;DHT22;15858;48.338;11.078;2023-03-12T05:16:13;0.20;99.90
28677;DHT22;15858;48.338;11.078;2023-03-12T05:18:40;0.30;99.90
28677;DHT22;15858;48.338;11.078;2023-03-12T05:21:13;0.30;99.90
28677;DHT22;15858;48.338;11.078;2023-03-12T05:23:40;0.30;99.90
28677;DHT22;15858;48.338;11.078;2023-03-12T05:26:35;0.30;99.90
28677;DHT22;15858;48.338;11.078;2023-03-12T05:29:00;0.40;99.90
28677;DHT22;15858;48.338;11.078;2023-03-12T05:31:28;0.30;99.90
28677;DHT22;15858;48.338;11.078;2023-03-12T05:33:55;0.30;99.90
28677;DHT22;15858;48.338;11.078;2023-03-12T05:36:22;0.30;99.90
28677;DHT22;15858;48.338;11.078;2023-03-12T05:38:49;0.40;99.90
28677;DHT22;15858;48.338;11.078;2023-03-12T05:41:24;0.30;99.90
28677;DHT22;15858;48.338;11.078;2023-03-12T05:43:52;0.40;99.90
28677;DHT22;15858;48.338;11.078;2023-03-12T05:46:19;0.30;99.90
28677;DHT22;15858;48.338;11.078;2023-03-12T05:48:46;0.30;99.90
28677;DHT22;15858;48.338;11.078;2023-03-12T05:51:13;0.30;99.90
28677;DHT22;15858;48.338;11.078;2023-03-12T05:53:40;0.30;99.90
28677;DHT22;15858;48.338;11.078;2023-03-12T05:56:11;0.30;99.90
28677;DHT22;15858;48.338;11.078;2023-03-12T05:58:39;0.30;99.90
28677;DHT22;15858;48.338;11.078;2023-03-12T06:01:18;0.40;99.90
28677;DHT22;15858;48.338;11.078;2023-03-12T06:03:45;0.50;99.90
28677;DHT22;15858;48.338;11.078;2023-03-12T06:06:12;0.50;99.90
28677;DHT22;15858;48.338;11.078;2023-03-12T06:08:40;0.60;99.90
28677;DHT22;15858;48.338;11.078;2023-03-12T06:11:07;0.60;99.90
28677;DHT22;15858;48.338;11.078;2023-03-12T06:13:34;0.60;99.90
28677;DHT22;15858;48.338;11.078;2023-03-12T06:16:06;0.70;99.90
28677;DHT22;15858;48.338;11.078;2023-03-12T06:18:34;0.70;99.90
28677;DHT22;15858;48.338;11.078;2023-03-12T06:21:29;0.80;99.90
28677;DHT22;15858;48.338;11.078;2023-03-12T06:23:56;0.80;99.90
28677;DHT22;15858;48.338;11.078;2023-03-12T06:26:22;0.90;99.90
28677;DHT22;15858;48.338;11.078;2023-03-12T06:28:49;0.90;99.90
28677;DHT22;15858;48.338;11.078;2023-03-12T06:31:16;0.90;99.90
28677;DHT22;15858;48.338;11.078;2023-03-12T06:33:43;0.90;99.90
28677;DHT22;15858;48.338;11.078;2023-03-12T06:36:10;1.00;99.90
28677;DHT22;15858;48.338;11.078;2023-03-12T06:38:37;1.10;99.90
28677;DHT22;15858;48.338;11.078;2023-03-12T06:41:09;1.10;99.90
28677;DHT22;15858;48.338;11.078;2023-03-12T06:43:38;1.10;99.90
28677;DHT22;15858;48.338;11.078;2023-03-12T06:46:06;1.20;99.90
28677;DHT22;15858;48.338;11.078;2023-03-12T06:48:34;1.20;99.90
28677;DHT22;15858;48.338;11.078;2023-03-12T06:51:05;1.30;99.90
28677;DHT22;15858;48.338;11.078;2023-03-12T06:53:32;1.40;99.90
28677;DHT22;15858;48.338;11.078;2023-03-12T06:55:59;1.30;99.90
28677;DHT22;15858;48.338;11.078;2023-03-12T06:58:26;1.40;99.90
28677;DHT22;15858;48.338;11.078;2023-03-12T07:00:53;1.50;99.90
28677;DHT22;15858;48.338;11.078;2023-03-12T07:03:19;1.50;99.90
28677;DHT22;15858;48.338;11.078;2023-03-12T07:05:48;1.60;99.90
28677;DHT22;15858;48.338;11.078;2023-03-12T07:08:16;1.60;99.90
28677;DHT22;15858;48.338;11.078;2023-03-12T07:10:43;1.60;99.90
28677;DHT22;15858;48.338;11.078;2023-03-12T07:13:10;1.60;99.90
28677;DHT22;15858;48.338;11.078;2023-03-12T07:15:37;1.70;99.90
28677;DHT22;15858;48.338;11.078;2023-03-12T07:18:05;1.80;99.90
28677;DHT22;15858;48.338;11.078;2023-03-12T07:20:35;1.90;99.90
28677;DHT22;15858;48.338;11.078;2023-03-12T07:23:02;1.90;99.90
28677;DHT22;15858;48.338;11.078;2023-03-12T07:25:29;2.00;99.90
28677;DHT22;15858;48.338;11.078;2023-03-12T07:27:55;2.10;99.90
28677;DHT22;15858;48.338;11.078;2023-03-12T07:30:22;2.30;99.90
28677;DHT22;15858;48.338;11.078;2023-03-12T07:32:49;2.30;99.90
28677;DHT22;15858;48.338;11.078;2023-03-12T07:35:15;2.40;99.90
28677;DHT22;15858;48.338;11.078;2023-03-12T07:37:42;2.40;99.90
28677;DHT22;15858;48.338;11.078;2023-03-12T07:40:09;2.40;99.90
28677;DHT22;15858;48.338;11.078;2023-03-12T07:42:36;2.50;99.90
28677;DHT22;15858;48.338;11.078;2023-03-12T07:45:02;2.60;99.90
28677;DHT22;15858;48.338;11.078;2023-03-12T07:47:29;2.60;99.90
28677;DHT22;15858;48.338;11.078;2023-03-12T07:49:56;2.70;99.90
28677;DHT22;15858;48.338;11.078;2023-03-12T07:52:23;2.80;99.90
28677;DHT22;15858;48.338;11.078;2023-03-12T07:54:49;2.80;99.90
28677;DHT22;15858;48.338;11.078;2023-03-12T07:57:16;2.90;99.90
28677;DHT22;15858;48.338;11.078;2023-03-12T07:59:43;2.90;99.90
28677;DHT22;15858;48.338;11.078;2023-03-12T08:02:10;3.00;99.90
28677;DHT22;15858;48.338;11.078;2023-03-12T08:04:36;3.00;99.90
28677;DHT22;15858;48.338;11.078;2023-03-12T08:07:03;3.10;99.90
28677;DHT22;15858;48.338;11.078;2023-03-12T08:09:32;3.20;99.90
28677;DHT22;15858;48.338;11.078;2023-03-12T08:11:59;3.30;99.90
28677;DHT22;15858;48.338;11.078;2023-03-12T08:14:26;3.40;99.90
28677;DHT22;15858;48.338;11.078;2023-03-12T08:16:52;3.40;99.90
28677;DHT22;15858;48.338;11.078;2023-03-12T08:19:19;3.50;99.90
28677;DHT22;15858;48.338;11.078;2023-03-12T08:21:46;3.50;99.90
28677;DHT22;15858;48.338;11.078;2023-03-12T08:24:12;3.50;99.90
28677;DHT22;15858;48.338;11.078;2023-03-12T08:26:39;3.60;99.90
28677;DHT22;15858;48.338;11.078;2023-03-12T08:29:05;3.60;99.90
28677;DHT22;15858;48.338;11.078;2023-03-12T08:31:32;3.70;99.90
28677;DHT22;15858;48.338;11.078;2023-03-12T08:33:58;3.70;99.90
28677;DHT22;15858;48.338;11.078;2023-03-12T08:36:25;3.70;99.90
28677;DHT22;15858;48.338;11.078;2023-03-12T08:38:52;3.70;99.90
28677;DHT22;15858;48.338;11.078;2023-03-12T08:41:19;3.80;99.90
28677;DHT22;15858;48.338;11.078;2023-03-12T08:43:45;3.80;99.90
28677;DHT22;15858;48.338;11.078;2023-03-12T08:46:12;3.80;99.90
28677;DHT22;15858;48.338;11.078;2023-03-12T08:48:39;3.80;99.90
28677;DHT22;15858;48.338;11.078;2023-03-12T08:51:06;3.90;99.90
28677;DHT22;15858;48.338;11.078;2023-03-12T08:53:35;3.80;99.90
28677;DHT22;15858;48.338;11.078;2023-03-12T08:56:03;3.80;99.90
28677;DHT22;15858;48.338;11.078;2023-03-12T08:58:30;3.80;99.90
28677;DHT22;15858;48.338;11.078;2023-03-12T09:00:56;3.90;99.90
28677;DHT22;15858;48.338;11.078;2023-03-12T09:03:24;4.00;99.90
28677;DHT22;15858;48.338;11.078;2023-03-12T09:06:02;4.00;99.90
28677;DHT22;15858;48.338;11.078;2023-03-12T09:08:29;4.00;99.90
28677;DHT22;15858;48.338;11.078;2023-03-12T09:10:55;3.90;99.90
28677;DHT22;15858;48.338;11.078;2023-03-12T09:13:22;3.90;99.90
28677;DHT22;15858;48.338;11.078;2023-03-12T09:15:48;3.90;99.90
28677;DHT22;15858;48.338;11.078;2023-03-12T09:18:15;4.10;99.90
28677;DHT22;15858;48.338;11.078;2023-03-12T09:20:42;4.00;99.90
28677;DHT22;15858;48.338;11.078;2023-03-12T09:23:08;4.00;99.90
28677;DHT22;15858;48.338;11.078;2023-03-12T09:25:35;4.00;99.90
28677;DHT22;15858;48.338;11.078;2023-03-12T09:28:02;4.10;99.90
28677;DHT22;15858;48.338;11.078;2023-03-12T09:30:28;4.10;99.90
28677;DHT22;15858;48.338;11.078;2023-03-12T09:32:55;4.10;99.90
28677;DHT22;15858;48.338;11.078;2023-03-12T09:35:22;4.20;99.90
28677;DHT22;15858;48.338;11.078;2023-03-12T09:37:48;4.20;99.90
28677;DHT22;15858;48.338;11.078;2023-03-12T09:40:18;4.20;99.90
28677;DHT22;15858;48.338;11.078;2023-03-12T09:42:45;4.20;99.90
28677;DHT22;15858;48.338;11.078;2023-03-12T09:45:20;4.20;99.90
28677;DHT22;15858;48.338;11.078;2023-03-12T09:47:57;4.20;99.90
28677;DHT22;15858;48.338;11.078;2023-03-12T09:50:35;4.30;99.90
28677;DHT22;15858;48.338;11.078;2023-03-12T09:55:56;4.40;99.90
28677;DHT22;15858;48.338;11.078;2023-03-12T09:58:31;4.40;99.90
28677;DHT22;15858;48.338;11.078;2023-03-12T10:03:55;4.40;99.90
28677;DHT22;15858;48.338;11.078;2023-03-12T10:06:34;4.50;99.90
28677;DHT22;15858;48.338;11.078;2023-03-12T10:12:06;4.60;99.90
28677;DHT22;15858;48.338;11.078;2023-03-12T10:17:39;4.60;99.90
28677;DHT22;15858;48.338;11.078;2023-03-12T10:23:21;4.60;99.90
28677;DHT22;15858;48.338;11.078;2023-03-12T10:26:15;4.60;99.90
28677;DHT22;15858;48.338;11.078;2023-03-12T10:28:56;4.60;99.90
28677;DHT22;15858;48.338;11.078;2023-03-12T10:32:29;4.60;99.90
28677;DHT22;15858;48.338;11.078;2023-03-12T10:37:47;4.70;99.90
28677;DHT22;15858;48.338;11.078;2023-03-12T10:40:18;4.80;99.90
28677;DHT22;15858;48.338;11.078;2023-03-12T10:42:45;4.80;99.90
28677;DHT22;15858;48.338;11.078;2023-03-12T10:48:18;5.00;99.90
28677;DHT22;15858;48.338;11.078;2023-03-12T10:51:05;5.00;99.90
28677;DHT22;15858;48.338;11.078;2023-03-12T10:53:34;5.00;99.90
28677;DHT22;15858;48.338;11.078;2023-03-12T10:56:06;5.10;99.90
28677;DHT22;15858;48.338;11.078;2023-03-12T10:58:38;5.10;99.90
28677;DHT22;15858;48.338;11.078;2023-03-12T11:01:18;5.10;99.90
28677;DHT22;15858;48.338;11.078;2023-03-12T11:03:45;5.20;99.90
28677;DHT22;15858;48.338;11.078;2023-03-12T11:06:25;5.20;99.90
28677;DHT22;15858;48.338;11.078;2023-03-12T11:09:16;5.20;99.90
28677;DHT22;15858;48.338;11.078;2023-03-12T11:11:47;5.20;99.90
28677;DHT22;15858;48.338;11.078;2023-03-12T11:14:23;5.40;99.90
28677;DHT22;15858;48.338;11.078;2023-03-12T11:16:50;5.40;99.90
28677;DHT22;15858;48.338;11.078;2023-03-12T11:19:31;5.40;99.90
28677;DHT22;15858;48.338;11.078;2023-03-12T11:22:07;5.40;99.90
28677;DHT22;15858;48.338;11.078;2023-03-12T11:24:34;5.50;99.90
28677;DHT22;15858;48.338;11.078;2023-03-12T11:27:05;5.50;99.90
28677;DHT22;15858;48.338;11.078;2023-03-12T11:29:38;5.50;99.90
28677;DHT22;15858;48.338;11.078;2023-03-12T11:32:25;5.50;99.90
28677;DHT22;15858;48.338;11.078;2023-03-12T11:34:56;5.60;99.90
28677;DHT22;15858;48.338;11.078;2023-03-12T11:37:43;5.60;99.90
28677;DHT22;15858;48.338;11.078;2023-03-12T11:46:11;5.80;99.90
28677;DHT22;15858;48.338;11.078;2023-03-12T11:56:52;6.00;99.90
28677;DHT22;15858;48.338;11.078;2023-03-12T12:08:18;6.30;99.90
28677;DHT22;15858;48.338;11.078;2023-03-12T12:11:00;6.30;99.90
28677;DHT22;15858;48.338;11.078;2023-03-12T12:13:44;6.40;99.90
28677;DHT22;15858;48.338;11.078;2023-03-12T12:24:41;6.80;99.90
28677;DHT22;15858;48.338;11.078;2023-03-12T12:27:28;6.90;99.90
28677;DHT22;15858;48.338;11.078;2023-03-12T12:35:40;7.20;99.90
28677;DHT22;15858;48.338;11.078;2023-03-12T12:38:15;7.30;99.90
28677;DHT22;15858;48.338;11.078;2023-03-12T12:40:54;7.40;99.90
28677;DHT22;15858;48.338;11.078;2023-03-12T12:43:32;7.40;99.90
28677;DHT22;15858;48.338;11.078;2023-03-12T12:46:17;7.50;99.90
28677;DHT22;15858;48.338;11.078;2023-03-12T12:48:52;7.60;99.90
28677;DHT22;15858;48.338;11.078;2023-03-12T12:51:24;7.70;99.90
28677;DHT22;15858;48.338;11.078;2023-03-12T12:56:43;7.70;99.90
28677;DHT22;15858;48.338;11.078;2023-03-12T12:59:32;7.70;99.90
28677;DHT22;15858;48.338;11.078;2023-03-12T13:02:01;7.70;99.90
28677;DHT22;15858;48.338;11.078;2023-03-12T13:04:37;7.80;99.90
28677;DHT22;15858;48.338;11.078;2023-03-12T13:09:40;7.90;99.90
28677;DHT22;15858;48.338;11.078;2023-03-12T13:12:46;7.90;99.90
28677;DHT22;15858;48.338;11.078;2023-03-12T13:20:27;8.20;99.90
28677;DHT22;15858;48.338;11.078;2023-03-12T13:23:00;8.30;99.90
28677;DHT22;15858;48.338;11.078;2023-03-12T13:30:52;8.70;99.90
28677;DHT22;15858;48.338;11.078;2023-03-12T13:33:40;8.80;99.90
28677;DHT22;15858;48.338;11.078;2023-03-12T13:36:18;8.80;99.90
28677;DHT22;15858;48.338;11.078;2023-03-12T13:38:55;8.90;99.90
28677;DHT22;15858;48.338;11.078;2023-03-12T13:43:57;9.00;99.90
28677;DHT22;15858;48.338;11.078;2023-03-12T13:46:36;9.00;99.90
28677;DHT22;15858;48.338;11.078;2023-03-12T13:49:08;9.20;99.90
28677;DHT22;15858;48.338;11.078;2023-03-12T13:51:44;9.30;99.90
28677;DHT22;15858;48.338;11.078;2023-03-12T13:54:16;9.40;99.90
28677;DHT22;15858;48.338;11.078;2023-03-12T13:56:54;9.40;99.90
28677;DHT22;15858;48.338;11.078;2023-03-12T13:59:22;9.50;99.90
28677;DHT22;15858;48.338;11.078;2023-03-12T14:01:56;9.60;99.90
28677;DHT22;15858;48.338;11.078;2023-03-12T14:04:46;9.60;99.90
28677;DHT22;15858;48.338;11.078;2023-03-12T14:15:44;10.00;99.90
28677;DHT22;15858;48.338;11.078;2023-03-12T14:18:25;10.20;99.90
28677;DHT22;15858;48.338;11.078;2023-03-12T14:21:02;10.30;99.90
28677;DHT22;15858;48.338;11.078;2023-03-12T14:23:38;10.50;99.90
28677;DHT22;15858;48.338;11.078;2023-03-12T14:26:06;10.60;99.90
28677;DHT22;15858;48.338;11.078;2023-03-12T14:28:39;10.60;99.90
28677;DHT22;15858;48.338;11.078;2023-03-12T14:31:16;10.40;99.90
28677;DHT22;15858;48.338;11.078;2023-03-12T14:39:36;10.40;99.90
28677;DHT22;15858;48.338;11.078;2023-03-12T14:42:06;10.40;99.90
28677;DHT22;15858;48.338;11.078;2023-03-12T14:44:36;10.40;99.90
28677;DHT22;15858;48.338;11.078;2023-03-12T14:47:08;10.30;99.90
28677;DHT22;15858;48.338;11.078;2023-03-12T14:49:43;10.30;99.90
28677;DHT22;15858;48.338;11.078;2023-03-12T14:52:11;10.20;99.90
28677;DHT22;15858;48.338;11.078;2023-03-12T14:54:38;10.10;99.90
28677;DHT22;15858;48.338;11.078;2023-03-12T14:57:10;10.10;99.90
28677;DHT22;15858;48.338;11.078;2023-03-12T14:59:38;10.10;99.90
28677;DHT22;15858;48.338;11.078;2023-03-12T15:02:13;10.00;99.90
28677;DHT22;15858;48.338;11.078;2023-03-12T15:04:42;10.00;99.90
28677;DHT22;15858;48.338;11.078;2023-03-12T15:07:11;10.10;99.90
28677;DHT22;15858;48.338;11.078;2023-03-12T15:09:42;10.10;99.90
28677;DHT22;15858;48.338;11.078;2023-03-12T15:12:28;10.00;99.90
28677;DHT22;15858;48.338;11.078;2023-03-12T15:15:21;10.00;99.90
28677;DHT22;15858;48.338;11.078;2023-03-12T15:17:48;10.00;99.90
28677;DHT22;15858;48.338;11.078;2023-03-12T15:20:16;10.00;99.90
28677;DHT22;15858;48.338;11.078;2023-03-12T15:22:44;10.00;99.90
28677;DHT22;15858;48.338;11.078;2023-03-12T15:25:23;9.90;99.90
28677;DHT22;15858;48.338;11.078;2023-03-12T15:30:41;9.90;99.90
28677;DHT22;15858;48.338;11.078;2023-03-12T15:36:00;9.80;99.90
28677;DHT22;15858;48.338;11.078;2023-03-12T15:38:29;9.70;99.90
28677;DHT22;15858;48.338;11.078;2023-03-12T15:40:58;9.60;99.90
28677;DHT22;15858;48.338;11.078;2023-03-12T15:43:26;9.50;99.90
28677;DHT22;15858;48.338;11.078;2023-03-12T15:46:00;9.40;99.90
28677;DHT22;15858;48.338;11.078;2023-03-12T15:48:36;9.30;99.90
28677;DHT22;15858;48.338;11.078;2023-03-12T15:51:12;9.20;99.90
28677;DHT22;15858;48.338;11.078;2023-03-12T15:53:39;9.20;99.90
28677;DHT22;15858;48.338;11.078;2023-03-12T15:56:21;9.10;99.90
28677;DHT22;15858;48.338;11.078;2023-03-12T15:59:40;9.10;99.90
28677;DHT22;15858;48.338;11.078;2023-03-12T16:01:54;9.10;99.90
28677;DHT22;15858;48.338;11.078;2023-03-12T16:04:22;9.20;99.90
28677;DHT22;15858;48.338;11.078;2023-03-12T16:06:50;9.20;99.90
28677;DHT22;15858;48.338;11.078;2023-03-12T16:09:25;9.10;99.90
28677;DHT22;15858;48.338;11.078;2023-03-12T16:11:53;9.10;99.90
28677;DHT22;15858;48.338;11.078;2023-03-12T16:14:27;9.10;99.90
28677;DHT22;15858;48.338;11.078;2023-03-12T16:16:54;9.10;99.90
28677;DHT22;15858;48.338;11.078;2023-03-12T16:19:22;9.10;99.90
28677;DHT22;15858;48.338;11.078;2023-03-12T16:21:49;9.20;99.90
28677;DHT22;15858;48.338;11.078;2023-03-12T16:24:16;9.30;99.90
28677;DHT22;15858;48.338;11.078;2023-03-12T16:26:54;9.20;99.90
28677;DHT22;15858;48.338;11.078;2023-03-12T16:29:30;9.20;99.90
28677;DHT22;15858;48.338;11.078;2023-03-12T16:31:57;9.30;99.90
28677;DHT22;15858;48.338;11.078;2023-03-12T16:34:24;9.30;99.90
28677;DHT22;15858;48.338;11.078;2023-03-12T16:36:51;9.30;99.90
28677;DHT22;15858;48.338;11.078;2023-03-12T16:39:17;9.30;99.90
28677;DHT22;15858;48.338;11.078;2023-03-12T16:41:45;9.30;99.90
28677;DHT22;15858;48.338;11.078;2023-03-12T16:44:19;9.20;99.90
28677;DHT22;15858;48.338;11.078;2023-03-12T16:46:47;9.20;99.90
28677;DHT22;15858;48.338;11.078;2023-03-12T16:49:15;9.20;99.90
28677;DHT22;15858;48.338;11.078;2023-03-12T16:51:42;9.20;99.90
28677;DHT22;15858;48.338;11.078;2023-03-12T16:54:09;9.20;99.90
28677;DHT22;15858;48.338;11.078;2023-03-12T16:56:41;9.10;99.90
28677;DHT22;15858;48.338;11.078;2023-03-12T16:59:21;9.10;99.90
28677;DHT22;15858;48.338;11.078;2023-03-12T17:01:49;9.10;99.90
28677;DHT22;15858;48.338;11.078;2023-03-12T17:04:16;9.00;99.90
28677;DHT22;15858;48.338;11.078;2023-03-12T17:06:43;9.00;99.90
28677;DHT22;15858;48.338;11.078;2023-03-12T17:09:09;9.00;99.90
28677;DHT22;15858;48.338;11.078;2023-03-12T17:11:37;8.90;99.90
28677;DHT22;15858;48.338;11.078;2023-03-12T17:14:19;9.00;99.90
28677;DHT22;15858;48.338;11.078;2023-03-12T17:16:47;8.90;99.90
28677;DHT22;15858;48.338;11.078;2023-03-12T17:19:13;9.00;99.90
28677;DHT22;15858;48.338;11.078;2023-03-12T17:21:40;9.00;99.90
28677;DHT22;15858;48.338;11.078;2023-03-12T17:24:09;8.80;99.90
28677;DHT22;15858;48.338;11.078;2023-03-12T17:26:36;8.80;99.90